Aviation Digital Data Service (ADDS)

Output produced by METARs form (0957 UTC 23 July 2019)
found at http://www.aviationweather.gov/metar/data/
 
Forecast for: ZSQD (QINGDAO/TSINGTAO, CN)
Text: TAF ZSQD 230307Z 2306/2406 18006MPS CAVOK TX35/2307Z TN25/2321Z
Forecast period: 0600 UTC 23 July 2019 to 0600 UTC 24 July 2019
Forecast type: FROM: standard forecast or significant change
Winds: from the S (180 degrees) at 14 MPH (12 knots; 6.2 m/s)
Visibility: 6 or more miles 10+ km)
Ceiling: unknown
Clouds: missing
Weather: no significant weather forecast for this period
Text: TEMPO 2315/2321 36008G13MPS 2500 TSRA OVC020 FEW030CB
Forecast period: 1500 to 2100 UTC 23 July 2019
Forecast type: TEMPORARY: The following changes expected for less than half the time period
Winds: from the N (360 degrees) at 18 MPH (16 knots; 8.2 m/s)
gusting to 29 MPH (25 knots; 12.9 m/s)
Visibility: 1.55 miles (2.49 km)
Ceiling: 2000 feet AGL
Clouds: overcast cloud deck at 2000 feet AGL
few clouds at 3000 feet AGL
Weather: TSRA  (rain associated with thunderstorm(s))